Terminal Aerodrome Forecast
Issued by NWS

Home | Current Version | Previous Version | Text Only | Print | Product List | Glossary Off
Versions: 1 2 3 4 5 6 7 8 9 10 11 12 13 14 15 16 17 18 19 20 21 22 23 24 25 26 27 28 29 30 31

850
FTUS43 KLOT 060531
TAFDPA
TAF
KDPA 060531Z 0606/0706 12005KT 1SM BR OVC005
     FM060800 10004KT 1SM BR OVC003
     FM061200 VRB02KT 2SM BR OVC003
     FM061800 27010KT P6SM BKN020
     FM062100 27012G18KT P6SM SCT030=

USA.gov is the U.S. government's official web portal to all federal, state and local government web resources and services.